Time,TemperatureF,DewpointF,PressureIn,WindDirection,WindDirectionDegrees,WindSpeedMPH,WindSpeedGustMPH,Humidity,HourlyPrecipIn,Conditions,Clouds,dailyrainin,SoftwareType,DateUTC
2013-05-02 00:00:00,46.3,43.8,30.32,NE,49,5.0,5.0,91,0.00,,,0.00,Wunderground v.1.15,2013-05-02 07:00:00,
2013-05-02 00:05:00,46.5,44.0,30.32,ENE,60,5.0,13.0,91,0.00,,,0.00,Wunderground v.1.15,2013-05-02 07:05:00,
2013-05-02 00:10:00,46.7,44.2,30.31,ENE,69,5.0,8.0,91,0.00,,,0.00,Wunderground v.1.15,2013-05-02 07:10:00,
2013-05-02 00:16:00,47.3,44.5,30.31,ENE,71,7.0,9.0,90,0.00,,,0.00,Wunderground v.1.15,2013-05-02 07:16:00,
2013-05-02 00:22:00,47.7,44.3,30.31,NE,40,7.0,7.0,88,0.00,,,0.00,Wunderground v.1.15,2013-05-02 07:22:00,
2013-05-02 00:27:00,47.8,44.1,30.31,NE,45,5.0,7.0,87,0.00,,,0.00,Wunderground v.1.15,2013-05-02 07:27:00,
2013-05-02 00:33:00,47.9,44.2,30.31,NE,51,4.0,6.0,87,0.00,,,0.00,Wunderground v.1.15,2013-05-02 07:33:00,
2013-05-02 00:38:00,48.0,44.0,30.31,NE,49,5.0,7.0,86,0.00,,,0.00,Wunderground v.1.15,2013-05-02 07:38:00,
2013-05-02 00:43:00,47.8,43.8,30.32,NE,44,5.0,6.0,86,0.00,,,0.00,Wunderground v.1.15,2013-05-02 07:43:00,
2013-05-02 00:50:00,47.7,43.7,30.31,NE,49,5.0,5.0,86,0.00,,,0.00,Wunderground v.1.15,2013-05-02 07:50:00,
2013-05-02 00:56:00,47.7,43.7,30.31,ENE,67,5.0,5.0,86,0.00,,,0.00,Wunderground v.1.15,2013-05-02 07:56:00,
2013-05-02 01:02:00,48.4,44.1,30.31,ENE,65,6.0,11.0,85,0.00,,,0.00,Wunderground v.1.15,2013-05-02 08:02:00,
2013-05-02 01:08:00,48.6,44.0,30.31,ENE,69,7.0,11.0,84,0.00,,,0.00,Wunderground v.1.15,2013-05-02 08:08:00,
2013-05-02 01:13:00,48.2,43.3,30.31,ENE,65,6.0,11.0,83,0.00,,,0.00,Wunderground v.1.15,2013-05-02 08:13:00,
2013-05-02 01:18:00,47.7,43.1,30.31,ENE,59,4.0,11.0,84,0.00,,,0.00,Wunderground v.1.15,2013-05-02 08:18:00,
2013-05-02 01:23:00,47.3,43.0,30.30,ENE,59,4.0,11.0,85,0.00,,,0.00,Wunderground v.1.15,2013-05-02 08:23:00,
2013-05-02 01:29:00,47.4,43.4,30.30,ENE,59,4.0,11.0,86,0.00,,,0.00,Wunderground v.1.15,2013-05-02 08:29:00,
2013-05-02 01:34:00,47.5,43.2,30.30,ENE,65,6.0,11.0,85,0.00,,,0.00,Wunderground v.1.15,2013-05-02 08:34:00,
2013-05-02 01:40:00,47.5,43.2,30.30,ENE,65,5.0,11.0,85,0.00,,,0.00,Wunderground v.1.15,2013-05-02 08:40:00,
2013-05-02 01:45:00,47.4,43.1,30.30,ENE,65,5.0,11.0,85,0.00,,,0.00,Wunderground v.1.15,2013-05-02 08:45:00,
2013-05-02 01:51:00,47.2,42.9,30.29,ENE,61,5.0,11.0,85,0.00,,,0.00,Wunderground v.1.15,2013-05-02 08:51:00,
2013-05-02 01:56:00,46.5,42.2,30.29,ENE,61,3.0,11.0,85,0.00,,,0.00,Wunderground v.1.15,2013-05-02 08:56:00,
2013-05-02 02:03:00,46.0,42.3,30.30,ENE,61,3.0,11.0,87,0.00,,,0.00,Wunderground v.1.15,2013-05-02 09:03:00,
2013-05-02 02:09:00,45.7,42.3,30.30,NE,40,3.0,11.0,88,0.00,,,0.00,Wunderground v.1.15,2013-05-02 09:09:00,
2013-05-02 02:14:00,45.9,42.8,30.30,NNE,31,3.0,11.0,89,0.00,,,0.00,Wunderground v.1.15,2013-05-02 09:14:00,
2013-05-02 02:20:00,46.0,42.9,30.30,NNE,31,4.0,11.0,89,0.00,,,0.00,Wunderground v.1.15,2013-05-02 09:20:00,
2013-05-02 02:26:00,46.0,43.2,30.30,NNE,24,4.0,11.0,90,0.00,,,0.00,Wunderground v.1.15,2013-05-02 09:26:00,
2013-05-02 02:31:00,45.9,43.4,30.30,NE,52,5.0,11.0,91,0.00,,,0.00,Wunderground v.1.15,2013-05-02 09:31:00,
2013-05-02 02:37:00,45.5,42.7,30.30,NE,54,4.0,11.0,90,0.00,,,0.00,Wunderground v.1.15,2013-05-02 09:37:00,
2013-05-02 02:43:00,45.0,42.2,30.30,NE,54,4.0,11.0,90,0.00,,,0.00,Wunderground v.1.15,2013-05-02 09:43:00,
2013-05-02 02:49:00,44.9,42.4,30.30,NE,54,4.0,11.0,91,0.00,,,0.00,Wunderground v.1.15,2013-05-02 09:49:00,
2013-05-02 02:54:00,45.0,42.5,30.30,ENE,74,4.0,11.0,91,0.00,,,0.00,Wunderground v.1.15,2013-05-02 09:54:00,
2013-05-02 02:59:00,45.8,43.0,30.29,ENE,66,6.0,11.0,90,0.00,,,0.00,Wunderground v.1.15,2013-05-02 09:59:00,
2013-05-02 03:04:00,46.5,43.1,30.29,ENE,64,6.0,11.0,88,0.00,,,0.00,Wunderground v.1.15,2013-05-02 10:04:00,
2013-05-02 03:11:00,47.3,43.3,30.29,ENE,67,7.0,11.0,86,0.00,,,0.00,Wunderground v.1.15,2013-05-02 10:11:00,
2013-05-02 03:16:00,47.6,43.0,30.29,ENE,74,7.0,11.0,84,0.00,,,0.00,Wunderground v.1.15,2013-05-02 10:16:00,
2013-05-02 03:22:00,47.6,42.7,30.29,ENE,71,7.0,11.0,83,0.00,,,0.00,Wunderground v.1.15,2013-05-02 10:22:00,
2013-05-02 03:27:00,47.5,42.6,30.29,East,79,7.0,11.0,83,0.00,,,0.00,Wunderground v.1.15,2013-05-02 10:27:00,
2013-05-02 03:32:00,47.5,42.6,30.29,ENE,65,7.0,11.0,83,0.00,,,0.00,Wunderground v.1.15,2013-05-02 10:32:00,
2013-05-02 03:38:00,47.4,42.5,30.29,ENE,65,7.0,11.0,83,0.00,,,0.00,Wunderground v.1.15,2013-05-02 10:38:00,
2013-05-02 03:44:00,47.1,42.2,30.28,ENE,69,7.0,11.0,83,0.00,,,0.00,Wunderground v.1.15,2013-05-02 10:44:00,
2013-05-02 03:49:00,46.8,41.9,30.28,ENE,61,6.0,6.0,83,0.00,,,0.00,Wunderground v.1.15,2013-05-02 10:49:00,
2013-05-02 03:54:00,46.7,42.1,30.28,ENE,76,6.0,11.0,84,0.00,,,0.00,Wunderground v.1.15,2013-05-02 10:54:00,
2013-05-02 04:00:00,46.8,42.2,30.28,ENE,68,6.0,6.0,84,0.00,,,0.00,Wunderground v.1.15,2013-05-02 11:00:00,
2013-05-02 04:05:00,47.2,42.3,30.28,ENE,63,7.0,11.0,83,0.00,,,0.00,Wunderground v.1.15,2013-05-02 11:05:00,
2013-05-02 04:11:00,47.5,42.3,30.28,ENE,67,7.0,11.0,82,0.00,,,0.00,Wunderground v.1.15,2013-05-02 11:11:00,
2013-05-02 04:16:00,47.6,42.4,30.28,ENE,63,6.0,11.0,82,0.00,,,0.00,Wunderground v.1.15,2013-05-02 11:16:00,
2013-05-02 04:21:00,47.7,42.2,30.28,ENE,67,6.0,11.0,81,0.00,,,0.00,Wunderground v.1.15,2013-05-02 11:21:00,
2013-05-02 04:28:00,47.5,42.0,30.28,ENE,65,4.0,11.0,81,0.00,,,0.00,Wunderground v.1.15,2013-05-02 11:28:00,
2013-05-02 04:34:00,47.4,41.9,30.28,ENE,65,4.0,11.0,81,0.00,,,0.00,Wunderground v.1.15,2013-05-02 11:34:00,
2013-05-02 04:39:00,47.3,41.8,30.29,ENE,65,3.0,3.0,81,0.00,,,0.00,Wunderground v.1.15,2013-05-02 11:39:00,
2013-05-02 04:45:00,47.2,41.7,30.29,ENE,65,3.0,11.0,81,0.00,,,0.00,Wunderground v.1.15,2013-05-02 11:45:00,
2013-05-02 04:51:00,47.2,41.7,30.28,ENE,65,3.0,11.0,81,0.00,,,0.00,Wunderground v.1.15,2013-05-02 11:51:00,
2013-05-02 04:56:00,47.3,41.8,30.28,ENE,65,4.0,11.0,81,0.00,,,0.00,Wunderground v.1.15,2013-05-02 11:56:00,
2013-05-02 05:03:00,47.5,42.0,30.28,ENE,65,4.0,11.0,81,0.00,,,0.00,Wunderground v.1.15,2013-05-02 12:03:00,
2013-05-02 05:09:00,47.6,41.7,30.28,ENE,65,3.0,11.0,80,0.00,,,0.00,Wunderground v.1.15,2013-05-02 12:09:00,
2013-05-02 05:14:00,47.2,41.3,30.28,ENE,65,3.0,11.0,80,0.00,,,0.00,Wunderground v.1.15,2013-05-02 12:14:00,
2013-05-02 05:21:00,47.2,41.3,30.28,ENE,65,4.0,11.0,80,0.00,,,0.00,Wunderground v.1.15,2013-05-02 12:21:00,
2013-05-02 05:27:00,47.3,41.4,30.28,ENE,65,3.0,11.0,80,0.00,,,0.00,Wunderground v.1.15,2013-05-02 12:27:00,
2013-05-02 05:33:00,47.3,41.1,30.28,ENE,66,3.0,11.0,79,0.00,,,0.00,Wunderground v.1.15,2013-05-02 12:33:00,
2013-05-02 05:39:00,47.2,40.7,30.28,ENE,66,4.0,11.0,78,0.00,,,0.00,Wunderground v.1.15,2013-05-02 12:39:00,
2013-05-02 05:45:00,46.9,40.7,30.28,ENE,67,4.0,11.0,79,0.00,,,0.00,Wunderground v.1.15,2013-05-02 12:45:00,
2013-05-02 05:50:00,47.3,41.1,30.27,ENE,77,4.0,11.0,79,0.00,,,0.00,Wunderground v.1.15,2013-05-02 12:50:00,
2013-05-02 05:56:00,47.4,41.2,30.27,East,82,5.0,11.0,79,0.00,,,0.00,Wunderground v.1.15,2013-05-02 12:56:00,
2013-05-02 06:01:00,47.4,40.9,30.27,East,83,6.0,11.0,78,0.00,,,0.00,Wunderground v.1.15,2013-05-02 13:01:00,
2013-05-02 06:07:00,47.4,40.9,30.27,East,83,6.0,11.0,78,0.00,,,0.00,Wunderground v.1.15,2013-05-02 13:07:00,
2013-05-02 06:12:00,47.2,40.7,30.27,East,83,6.0,11.0,78,0.00,,,0.00,Wunderground v.1.15,2013-05-02 13:12:00,
2013-05-02 06:18:00,47.0,40.8,30.27,ENE,78,5.0,11.0,79,0.00,,,0.00,Wunderground v.1.15,2013-05-02 13:18:00,
2013-05-02 06:24:00,47.1,40.9,30.27,ENE,78,5.0,11.0,79,0.00,,,0.00,Wunderground v.1.15,2013-05-02 13:24:00,
2013-05-02 06:29:00,47.4,41.2,30.27,East,79,4.0,11.0,79,0.00,,,0.00,Wunderground v.1.15,2013-05-02 13:29:00,
2013-05-02 06:34:00,47.7,41.2,30.27,ENE,78,5.0,11.0,78,0.00,,,0.00,Wunderground v.1.15,2013-05-02 13:34:00,
2013-05-02 06:41:00,47.7,41.2,30.27,ENE,77,4.0,11.0,78,0.00,,,0.00,Wunderground v.1.15,2013-05-02 13:41:00,
2013-05-02 06:46:00,47.8,41.3,30.27,ENE,71,4.0,11.0,78,0.00,,,0.00,Wunderground v.1.15,2013-05-02 13:46:00,
2013-05-02 06:52:00,47.9,41.0,30.27,ENE,71,5.0,11.0,77,0.00,,,0.00,Wunderground v.1.15,2013-05-02 13:52:00,
2013-05-02 06:58:00,47.8,40.9,30.27,ENE,71,5.0,11.0,77,0.00,,,0.00,Wunderground v.1.15,2013-05-02 13:58:00,
2013-05-02 07:03:00,47.9,41.0,30.28,ENE,68,5.0,11.0,77,0.00,,,0.00,Wunderground v.1.15,2013-05-02 14:03:00,
2013-05-02 07:09:00,47.7,41.2,30.27,ENE,72,5.0,11.0,78,0.00,,,0.00,Wunderground v.1.15,2013-05-02 14:09:00,
2013-05-02 07:14:00,48.1,41.9,30.27,ENE,68,5.0,11.0,79,0.00,,,0.00,Wunderground v.1.15,2013-05-02 14:14:00,
2013-05-02 07:21:00,49.2,42.0,30.27,ENE,65,6.0,11.0,76,0.00,,,0.00,Wunderground v.1.15,2013-05-02 14:21:00,
2013-05-02 07:26:00,49.7,41.7,30.27,ENE,65,7.0,11.0,74,0.00,,,0.00,Wunderground v.1.15,2013-05-02 14:26:00,
2013-05-02 07:31:00,49.8,41.8,30.27,ENE,64,7.0,11.0,74,0.00,,,0.00,Wunderground v.1.15,2013-05-02 14:31:00,
2013-05-02 07:36:00,50.0,42.4,30.27,ENE,66,6.0,11.0,75,0.00,,,0.00,Wunderground v.1.15,2013-05-02 14:36:00,
2013-05-02 07:43:00,50.3,43.0,30.26,ENE,64,6.0,11.0,76,0.00,,,0.00,Wunderground v.1.15,2013-05-02 14:43:00,
2013-05-02 07:48:00,50.3,43.0,30.26,ENE,66,7.0,11.0,76,0.00,,,0.00,Wunderground v.1.15,2013-05-02 14:48:00,
2013-05-02 07:53:00,50.2,43.3,30.27,ENE,65,6.0,11.0,77,0.00,,,0.00,Wunderground v.1.15,2013-05-02 14:53:00,
2013-05-02 07:58:00,50.4,43.8,30.27,ENE,65,5.0,11.0,78,0.00,,,0.00,Wunderground v.1.15,2013-05-02 14:58:00,
2013-05-02 08:03:00,50.5,43.9,30.27,ENE,59,3.0,11.0,78,0.00,,,0.00,Wunderground v.1.15,2013-05-02 15:03:00,
2013-05-02 08:09:00,50.7,44.1,30.27,NE,49,3.0,11.0,78,0.00,,,0.00,Wunderground v.1.15,2013-05-02 15:09:00,
2013-05-02 08:14:00,51.1,44.1,30.27,NE,47,3.0,11.0,77,0.00,,,0.00,Wunderground v.1.15,2013-05-02 15:14:00,
2013-05-02 08:20:00,51.1,44.1,30.28,NE,49,3.0,11.0,77,0.00,,,0.00,Wunderground v.1.15,2013-05-02 15:20:00,
2013-05-02 08:25:00,51.3,44.3,30.28,NE,47,3.0,11.0,77,0.00,,,0.00,Wunderground v.1.15,2013-05-02 15:25:00,
2013-05-02 08:32:00,51.9,44.2,30.27,NE,43,4.0,11.0,75,0.00,,,0.00,Wunderground v.1.15,2013-05-02 15:32:00,
2013-05-02 08:38:00,52.3,44.3,30.27,NE,55,4.0,11.0,74,0.00,,,0.00,Wunderground v.1.15,2013-05-02 15:38:00,
2013-05-02 08:43:00,52.3,44.3,30.27,NE,49,4.0,11.0,74,0.00,,,0.00,Wunderground v.1.15,2013-05-02 15:43:00,
2013-05-02 08:48:00,53.0,44.9,30.27,NE,51,5.0,11.0,74,0.00,,,0.00,Wunderground v.1.15,2013-05-02 15:48:00,
2013-05-02 08:54:00,53.7,44.9,30.27,NE,53,5.0,11.0,72,0.00,,,0.00,Wunderground v.1.15,2013-05-02 15:54:00,
2013-05-02 09:00:00,53.7,44.5,30.27,NE,42,4.0,4.0,71,0.00,,,0.00,Wunderground v.1.15,2013-05-02 16:00:00,
2013-05-02 09:05:00,53.5,44.3,30.27,NE,44,4.0,11.0,71,0.00,,,0.00,Wunderground v.1.15,2013-05-02 16:05:00,
2013-05-02 09:10:00,53.9,44.7,30.27,NE,44,4.0,11.0,71,0.00,,,0.00,Wunderground v.1.15,2013-05-02 16:10:00,
2013-05-02 09:17:00,53.6,43.7,30.27,NE,53,4.0,11.0,69,0.00,,,0.00,Wunderground v.1.15,2013-05-02 16:17:00,
2013-05-02 09:23:00,53.5,44.0,30.26,NNE,22,4.0,11.0,70,0.00,,,0.00,Wunderground v.1.15,2013-05-02 16:23:00,
2013-05-02 09:28:00,54.0,43.7,30.26,North,11,3.0,11.0,68,0.00,,,0.00,Wunderground v.1.15,2013-05-02 16:28:00,
2013-05-02 09:34:00,54.2,43.9,30.26,NNE,32,4.0,11.0,68,0.00,,,0.00,Wunderground v.1.15,2013-05-02 16:34:00,
2013-05-02 09:39:00,54.6,43.9,30.26,NNE,17,4.0,11.0,67,0.00,,,0.00,Wunderground v.1.15,2013-05-02 16:39:00,
2013-05-02 09:45:00,54.5,43.8,30.26,North,10,4.0,11.0,67,0.00,,,0.00,Wunderground v.1.15,2013-05-02 16:45:00,
2013-05-02 09:50:00,54.5,43.8,30.26,North,5,4.0,11.0,67,0.00,,,0.00,Wunderground v.1.15,2013-05-02 16:50:00,
2013-05-02 09:55:00,54.3,44.0,30.26,North,5,4.0,11.0,68,0.00,,,0.00,Wunderground v.1.15,2013-05-02 16:55:00,
2013-05-02 10:00:00,53.3,43.8,30.26,North,9,5.0,11.0,70,0.00,,,0.00,Wunderground v.1.15,2013-05-02 17:00:00,
2013-05-02 10:06:00,53.2,44.0,30.26,NNE,13,5.0,11.0,71,0.00,,,0.00,Wunderground v.1.15,2013-05-02 17:06:00,
2013-05-02 10:12:00,53.1,43.9,30.26,North,355,5.0,11.0,71,0.00,,,0.00,Wunderground v.1.15,2013-05-02 17:12:00,
2013-05-02 10:18:00,51.9,43.5,30.26,North,355,6.0,11.0,73,0.00,,,0.00,Wunderground v.1.15,2013-05-02 17:18:00,
2013-05-02 10:23:00,51.4,43.4,30.26,North,355,8.0,11.0,74,0.00,,,0.00,Wunderground v.1.15,2013-05-02 17:23:00,
2013-05-02 10:28:00,50.8,43.8,30.26,North,5,9.0,13.0,77,0.00,,,0.00,Wunderground v.1.15,2013-05-02 17:28:00,
2013-05-02 10:33:00,51.0,44.0,30.26,North,5,9.0,11.0,77,0.00,,,0.00,Wunderground v.1.15,2013-05-02 17:33:00,
2013-05-02 10:38:00,51.1,44.1,30.26,North,350,8.0,12.0,77,0.00,,,0.00,Wunderground v.1.15,2013-05-02 17:38:00,
2013-05-02 10:43:00,50.8,44.2,30.26,North,350,9.0,11.0,78,0.00,,,0.00,Wunderground v.1.15,2013-05-02 17:43:00,
2013-05-02 10:50:00,50.6,44.0,30.26,North,350,10.0,12.0,78,0.00,,,0.00,Wunderground v.1.15,2013-05-02 17:50:00,
2013-05-02 10:56:00,50.4,44.1,30.26,North,5,11.0,12.0,79,0.00,,,0.00,Wunderground v.1.15,2013-05-02 17:56:00,
2013-05-02 11:01:00,50.4,44.1,30.26,North,5,12.0,15.0,79,0.00,,,0.00,Wunderground v.1.15,2013-05-02 18:01:00,
2013-05-02 11:06:00,50.6,44.3,30.26,North,349,14.0,17.0,79,0.00,,,0.00,Wunderground v.1.15,2013-05-02 18:06:00,
2013-05-02 11:13:00,50.8,44.2,30.26,NNE,16,15.0,18.0,78,0.00,,,0.00,Wunderground v.1.15,2013-05-02 18:13:00,
2013-05-02 11:18:00,51.0,44.0,30.26,North,360,15.0,18.0,77,0.00,,,0.00,Wunderground v.1.15,2013-05-02 18:18:00,
2013-05-02 11:24:00,51.3,44.0,30.26,North,355,14.0,18.0,76,0.00,,,0.00,Wunderground v.1.15,2013-05-02 18:24:00,
2013-05-02 11:30:00,51.2,43.9,30.26,North,5,14.0,15.0,76,0.00,,,0.00,Wunderground v.1.15,2013-05-02 18:30:00,
2013-05-02 11:35:00,51.3,44.3,30.26,NNW,348,14.0,15.0,77,0.00,,,0.00,Wunderground v.1.15,2013-05-02 18:35:00,
2013-05-02 11:41:00,51.3,44.3,30.26,North,360,14.0,17.0,77,0.00,,,0.00,Wunderground v.1.15,2013-05-02 18:41:00,
2013-05-02 11:47:00,51.5,44.5,30.25,North,5,14.0,17.0,77,0.00,,,0.00,Wunderground v.1.15,2013-05-02 18:47:00,
2013-05-02 11:52:00,51.8,44.1,30.25,North,355,15.0,20.0,75,0.00,,,0.00,Wunderground v.1.15,2013-05-02 18:52:00,
2013-05-02 11:58:00,52.2,44.5,30.25,NNW,347,15.0,20.0,75,0.00,,,0.00,Wunderground v.1.15,2013-05-02 18:58:00,
2013-05-02 12:03:00,52.3,44.3,30.25,NNW,342,15.0,15.0,74,0.00,,,0.00,Wunderground v.1.15,2013-05-02 19:03:00,
2013-05-02 12:08:00,52.5,44.1,30.25,North,360,14.0,17.0,73,0.00,,,0.00,Wunderground v.1.15,2013-05-02 19:08:00,
2013-05-02 12:14:00,52.9,44.5,30.25,North,355,14.0,14.0,73,0.00,,,0.00,Wunderground v.1.15,2013-05-02 19:14:00,
2013-05-02 12:19:00,52.5,44.1,30.25,North,355,14.0,17.0,73,0.00,,,0.00,Wunderground v.1.15,2013-05-02 19:19:00,
2013-05-02 12:25:00,52.1,44.4,30.25,North,355,15.0,20.0,75,0.00,,,0.00,Wunderground v.1.15,2013-05-02 19:25:00,
2013-05-02 12:30:00,51.5,44.5,30.25,North,350,16.0,16.0,77,0.00,,,0.00,Wunderground v.1.15,2013-05-02 19:30:00,
2013-05-02 12:35:00,51.3,44.7,30.25,North,355,17.0,19.0,78,0.00,,,0.00,Wunderground v.1.15,2013-05-02 19:35:00,
2013-05-02 12:41:00,51.3,44.7,30.25,North,360,17.0,20.0,78,0.00,,,0.00,Wunderground v.1.15,2013-05-02 19:41:00,
2013-05-02 12:47:00,51.6,45.0,30.25,North,349,16.0,20.0,78,0.00,,,0.00,Wunderground v.1.15,2013-05-02 19:47:00,
2013-05-02 12:52:00,51.9,44.6,30.25,North,350,15.0,19.0,76,0.00,,,0.00,Wunderground v.1.15,2013-05-02 19:52:00,
2013-05-02 12:58:00,51.7,44.7,30.25,North,355,15.0,19.0,77,0.00,,,0.00,Wunderground v.1.15,2013-05-02 19:58:00,
2013-05-02 13:04:00,52.1,44.8,30.25,North,5,15.0,16.0,76,0.00,,,0.00,Wunderground v.1.15,2013-05-02 20:04:00,
2013-05-02 13:09:00,52.0,44.7,30.25,North,360,15.0,15.0,76,0.00,,,0.00,Wunderground v.1.15,2013-05-02 20:09:00,
2013-05-02 13:16:00,52.0,44.7,30.25,NNW,346,15.0,16.0,76,0.00,,,0.00,Wunderground v.1.15,2013-05-02 20:16:00,
2013-05-02 13:21:00,51.7,44.7,30.24,North,355,15.0,17.0,77,0.00,,,0.00,Wunderground v.1.15,2013-05-02 20:21:00,
2013-05-02 13:26:00,51.6,44.6,30.25,NNW,340,15.0,19.0,77,0.00,,,0.00,Wunderground v.1.15,2013-05-02 20:26:00,
2013-05-02 13:33:00,51.3,44.7,30.25,North,5,16.0,18.0,78,0.00,,,0.00,Wunderground v.1.15,2013-05-02 20:33:00,
2013-05-02 13:38:00,51.0,45.0,30.25,North,351,16.0,21.0,80,0.00,,,0.00,Wunderground v.1.15,2013-05-02 20:38:00,
2013-05-02 13:43:00,50.8,44.9,30.25,North,355,16.0,21.0,80,0.00,,,0.00,Wunderground v.1.15,2013-05-02 20:43:00,
2013-05-02 13:48:00,50.8,44.9,30.25,North,360,15.0,21.0,80,0.00,,,0.00,Wunderground v.1.15,2013-05-02 20:48:00,
2013-05-02 13:54:00,51.0,45.4,30.25,NNW,343,14.0,19.0,81,0.00,,,0.00,Wunderground v.1.15,2013-05-02 20:54:00,
2013-05-02 13:59:00,51.0,45.4,30.24,North,360,14.0,14.0,81,0.00,,,0.00,Wunderground v.1.15,2013-05-02 20:59:00,
2013-05-02 14:04:00,51.0,45.4,30.24,North,5,14.0,17.0,81,0.00,,,0.00,Wunderground v.1.15,2013-05-02 21:04:00,
2013-05-02 14:10:00,51.0,45.4,30.24,North,355,15.0,15.0,81,0.00,,,0.00,Wunderground v.1.15,2013-05-02 21:10:00,
2013-05-02 14:16:00,51.0,45.7,30.24,North,5,15.0,19.0,82,0.00,,,0.00,Wunderground v.1.15,2013-05-02 21:16:00,
2013-05-02 14:22:00,50.9,45.6,30.24,NNW,333,15.0,18.0,82,0.00,,,0.00,Wunderground v.1.15,2013-05-02 21:22:00,
2013-05-02 14:27:00,50.9,45.6,30.24,North,360,16.0,18.0,82,0.00,,,0.00,Wunderground v.1.15,2013-05-02 21:27:00,
2013-05-02 14:33:00,50.7,45.4,30.24,North,11,17.0,20.0,82,0.00,,,0.00,Wunderground v.1.15,2013-05-02 21:33:00,
2013-05-02 14:39:00,50.7,45.4,30.24,North,5,17.0,20.0,82,0.00,,,0.00,Wunderground v.1.15,2013-05-02 21:39:00,
2013-05-02 14:45:00,50.7,45.4,30.24,NNW,344,17.0,18.0,82,0.00,,,0.00,Wunderground v.1.15,2013-05-02 21:45:00,
2013-05-02 14:50:00,50.8,45.8,30.24,North,360,17.0,17.0,83,0.00,,,0.00,Wunderground v.1.15,2013-05-02 21:50:00,
2013-05-02 14:56:00,50.6,45.3,30.24,North,5,17.0,21.0,82,0.00,,,0.00,Wunderground v.1.15,2013-05-02 21:56:00,
2013-05-02 15:01:00,50.7,45.4,30.24,North,355,18.0,22.0,82,0.00,,,0.00,Wunderground v.1.15,2013-05-02 22:01:00,
2013-05-02 15:07:00,50.8,45.5,30.24,North,5,18.0,22.0,82,0.00,,,0.00,Wunderground v.1.15,2013-05-02 22:07:00,
2013-05-02 15:13:00,50.9,45.6,30.24,North,360,18.0,20.0,82,0.00,,,0.00,Wunderground v.1.15,2013-05-02 22:13:00,
2013-05-02 15:19:00,50.7,45.4,30.24,NNW,348,18.0,21.0,82,0.00,,,0.00,Wunderground v.1.15,2013-05-02 22:19:00,
2013-05-02 15:25:00,50.7,45.4,30.24,NNW,337,18.0,18.0,82,0.00,,,0.00,Wunderground v.1.15,2013-05-02 22:25:00,
2013-05-02 15:31:00,50.7,45.4,30.24,North,355,18.0,20.0,82,0.00,,,0.00,Wunderground v.1.15,2013-05-02 22:31:00,
2013-05-02 15:36:00,50.7,45.4,30.24,North,355,19.0,22.0,82,0.00,,,0.00,Wunderground v.1.15,2013-05-02 22:36:00,
2013-05-02 15:42:00,50.7,45.4,30.24,North,355,18.0,21.0,82,0.00,,,0.00,Wunderground v.1.15,2013-05-02 22:42:00,
2013-05-02 15:48:00,50.4,45.4,30.24,North,360,19.0,24.0,83,0.00,,,0.00,Wunderground v.1.15,2013-05-02 22:48:00,
2013-05-02 15:54:00,50.3,45.3,30.24,North,5,20.0,23.0,83,0.00,,,0.00,Wunderground v.1.15,2013-05-02 22:54:00,
2013-05-02 16:00:00,50.2,45.6,30.24,North,11,20.0,20.0,84,0.00,,,0.00,Wunderground v.1.15,2013-05-02 23:00:00,
2013-05-02 16:05:00,50.1,45.8,30.25,North,5,19.0,20.0,85,0.00,,,0.00,Wunderground v.1.15,2013-05-02 23:05:00,
2013-05-02 16:10:00,50.0,46.0,30.25,North,355,19.0,22.0,86,0.00,,,0.00,Wunderground v.1.15,2013-05-02 23:10:00,
2013-05-02 16:15:00,50.1,46.1,30.24,North,349,19.0,22.0,86,0.00,,,0.00,Wunderground v.1.15,2013-05-02 23:15:00,
2013-05-02 16:20:00,50.2,46.2,30.24,North,355,19.0,23.0,86,0.00,,,0.00,Wunderground v.1.15,2013-05-02 23:20:00,
2013-05-02 16:27:00,50.2,45.9,30.24,North,355,18.0,23.0,85,0.00,,,0.00,Wunderground v.1.15,2013-05-02 23:27:00,
2013-05-02 16:32:00,50.2,45.9,30.25,North,5,18.0,21.0,85,0.00,,,0.00,Wunderground v.1.15,2013-05-02 23:32:00,
2013-05-02 16:38:00,50.3,46.0,30.25,North,355,19.0,22.0,85,0.00,,,0.00,Wunderground v.1.15,2013-05-02 23:38:00,
2013-05-02 16:43:00,50.4,46.1,30.25,North,355,18.0,21.0,85,0.00,,,0.00,Wunderground v.1.15,2013-05-02 23:43:00,
2013-05-02 16:49:00,50.2,45.9,30.24,North,350,18.0,26.0,85,0.00,,,0.00,Wunderground v.1.15,2013-05-02 23:49:00,
2013-05-02 16:54:00,50.2,45.9,30.24,NNE,15,19.0,27.0,85,0.00,,,0.00,Wunderground v.1.15,2013-05-02 23:54:00,
2013-05-02 16:59:00,50.3,46.0,30.24,North,350,18.0,18.0,85,0.00,,,0.00,Wunderground v.1.15,2013-05-02 23:59:00,
2013-05-02 17:06:00,50.4,46.1,30.24,North,355,17.0,23.0,85,0.00,,,0.00,Wunderground v.1.15,2013-05-03 00:06:00,
2013-05-02 17:11:00,50.8,46.1,30.24,North,360,16.0,17.0,84,0.00,,,0.00,Wunderground v.1.15,2013-05-03 00:11:00,
2013-05-02 17:16:00,50.4,45.7,30.24,North,355,17.0,26.0,84,0.00,,,0.00,Wunderground v.1.15,2013-05-03 00:16:00,
2013-05-02 17:23:00,50.2,45.6,30.24,North,5,20.0,24.0,84,0.00,,,0.00,Wunderground v.1.15,2013-05-03 00:23:00,
2013-05-02 17:28:00,50.3,46.0,30.24,North,351,20.0,25.0,85,0.00,,,0.00,Wunderground v.1.15,2013-05-03 00:28:00,
2013-05-02 17:33:00,50.2,45.9,30.24,North,5,20.0,20.0,85,0.00,,,0.00,Wunderground v.1.15,2013-05-03 00:33:00,
2013-05-02 17:40:00,50.1,45.8,30.24,North,360,19.0,19.0,85,0.00,,,0.00,Wunderground v.1.15,2013-05-03 00:40:00,
2013-05-02 17:46:00,50.4,45.7,30.24,NNW,346,18.0,21.0,84,0.00,,,0.00,Wunderground v.1.15,2013-05-03 00:46:00,
2013-05-02 17:51:00,50.1,45.5,30.24,North,350,18.0,24.0,84,0.00,,,0.00,Wunderground v.1.15,2013-05-03 00:51:00,
2013-05-02 17:57:00,50.2,45.6,30.24,North,355,20.0,24.0,84,0.00,,,0.00,Wunderground v.1.15,2013-05-03 00:57:00,
2013-05-02 18:03:00,50.0,45.4,30.24,NNE,15,20.0,23.0,84,0.00,,,0.00,Wunderground v.1.15,2013-05-03 01:03:00,
2013-05-02 18:08:00,49.8,45.2,30.25,NNE,15,20.0,25.0,84,0.00,,,0.00,Wunderground v.1.15,2013-05-03 01:08:00,
2013-05-02 18:13:00,49.7,45.4,30.25,NNE,13,20.0,24.0,85,0.00,,,0.00,Wunderground v.1.15,2013-05-03 01:13:00,
2013-05-02 18:18:00,49.8,45.5,30.25,North,5,19.0,24.0,85,0.00,,,0.00,Wunderground v.1.15,2013-05-03 01:18:00,
2013-05-02 18:24:00,49.7,45.4,30.25,North,11,17.0,22.0,85,0.00,,,0.00,Wunderground v.1.15,2013-05-03 01:24:00,
2013-05-02 18:29:00,49.8,45.5,30.24,NNE,24,15.0,15.0,85,0.00,,,0.00,Wunderground v.1.15,2013-05-03 01:29:00,
2013-05-02 18:36:00,49.7,45.1,30.24,North,5,16.0,19.0,84,0.00,,,0.00,Wunderground v.1.15,2013-05-03 01:36:00,
2013-05-02 18:41:00,49.4,44.8,30.24,North,355,15.0,17.0,84,0.00,,,0.00,Wunderground v.1.15,2013-05-03 01:41:00,
2013-05-02 18:48:00,49.4,44.5,30.24,North,360,13.0,17.0,83,0.00,,,0.00,Wunderground v.1.15,2013-05-03 01:48:00,
2013-05-02 18:53:00,49.8,44.8,30.24,NNE,17,11.0,15.0,83,0.00,,,0.00,Wunderground v.1.15,2013-05-03 01:53:00,
2013-05-02 18:58:00,50.1,44.8,30.24,North,355,9.0,15.0,82,0.00,,,0.00,Wunderground v.1.15,2013-05-03 01:58:00,
2013-05-02 19:04:00,50.1,44.5,30.24,North,9,8.0,11.0,81,0.00,,,0.00,Wunderground v.1.15,2013-05-03 02:04:00,
2013-05-02 19:09:00,50.1,44.5,30.24,North,355,7.0,11.0,81,0.00,,,0.00,Wunderground v.1.15,2013-05-03 02:09:00,
2013-05-02 19:15:00,49.9,44.0,30.24,NNE,16,6.0,11.0,80,0.00,,,0.00,Wunderground v.1.15,2013-05-03 02:15:00,
2013-05-02 19:20:00,50.0,44.1,30.23,North,5,6.0,11.0,80,0.00,,,0.00,Wunderground v.1.15,2013-05-03 02:20:00,
2013-05-02 19:26:00,50.5,44.2,30.23,NNE,32,6.0,11.0,79,0.00,,,0.00,Wunderground v.1.15,2013-05-03 02:26:00,
2013-05-02 19:31:00,50.9,44.3,30.23,NNE,29,6.0,11.0,78,0.00,,,0.00,Wunderground v.1.15,2013-05-03 02:31:00,
2013-05-02 19:37:00,51.0,43.7,30.23,North,349,5.0,11.0,76,0.00,,,0.00,Wunderground v.1.15,2013-05-03 02:37:00,
2013-05-02 19:42:00,50.2,43.3,30.24,NNW,340,9.0,15.0,77,0.00,,,0.00,Wunderground v.1.15,2013-05-03 02:42:00,
2013-05-02 19:48:00,49.7,43.1,30.24,North,360,14.0,20.0,78,0.00,,,0.00,Wunderground v.1.15,2013-05-03 02:48:00,
2013-05-02 19:53:00,49.6,43.4,30.24,NNE,16,17.0,18.0,79,0.00,,,0.00,Wunderground v.1.15,2013-05-03 02:53:00,
2013-05-02 19:58:00,49.2,43.3,30.24,North,5,17.0,18.0,80,0.00,,,0.00,Wunderground v.1.15,2013-05-03 02:58:00,
2013-05-02 20:03:00,48.9,43.0,30.24,NNW,342,16.0,19.0,80,0.00,,,0.00,Wunderground v.1.15,2013-05-03 03:03:00,
2013-05-02 20:10:00,48.6,43.4,30.24,NNW,340,13.0,13.0,82,0.00,,,0.00,Wunderground v.1.15,2013-05-03 03:10:00,
2013-05-02 20:16:00,48.4,43.2,30.25,North,355,11.0,17.0,82,0.00,,,0.00,Wunderground v.1.15,2013-05-03 03:16:00,
2013-05-02 20:21:00,48.3,43.4,30.24,North,351,12.0,14.0,83,0.00,,,0.00,Wunderground v.1.15,2013-05-03 03:21:00,
2013-05-02 20:26:00,48.2,43.3,30.25,North,5,12.0,14.0,83,0.00,,,0.00,Wunderground v.1.15,2013-05-03 03:26:00,
2013-05-02 20:33:00,48.1,43.5,30.25,North,351,12.0,15.0,84,0.00,,,0.00,Wunderground v.1.15,2013-05-03 03:33:00,
2013-05-02 20:38:00,48.0,43.4,30.25,North,355,15.0,18.0,84,0.00,,,0.00,Wunderground v.1.15,2013-05-03 03:38:00,
2013-05-02 20:44:00,47.9,43.6,30.25,North,5,15.0,16.0,85,0.00,,,0.00,Wunderground v.1.15,2013-05-03 03:44:00,
2013-05-02 20:50:00,47.9,43.6,30.25,North,360,12.0,12.0,85,0.00,,,0.00,Wunderground v.1.15,2013-05-03 03:50:00,
2013-05-02 20:56:00,47.9,43.6,30.26,East,84,10.0,12.0,85,0.00,,,0.00,Wunderground v.1.15,2013-05-03 03:56:00,
2013-05-02 21:02:00,47.9,43.9,30.26,North,355,11.0,14.0,86,0.00,,,0.00,Wunderground v.1.15,2013-05-03 04:02:00,
2013-05-02 21:03:00,47.9,43.9,30.26,NE,51,12.0,14.0,86,0.00,,,0.00,Wunderground v.1.15,2013-05-03 04:03:00,
2013-05-02 21:04:00,47.9,43.9,30.26,NNE,15,12.0,17.0,86,0.00,,,0.00,Wunderground v.1.15,2013-05-03 04:04:00,
2013-05-02 21:08:00,48.0,44.0,30.26,North,5,12.0,17.0,86,0.00,,,0.00,Wunderground v.1.15,2013-05-03 04:08:00,
2013-05-02 21:13:00,47.9,43.9,30.25,North,360,8.0,11.0,86,0.00,,,0.00,Wunderground v.1.15,2013-05-03 04:13:00,
2013-05-02 21:15:00,47.9,43.9,30.26,NNE,22,7.0,11.0,86,0.00,,,0.00,Wunderground v.1.15,2013-05-03 04:15:00,
2013-05-02 21:20:00,47.8,43.8,30.26,NNE,22,5.0,11.0,86,0.00,,,0.00,Wunderground v.1.15,2013-05-03 04:20:00,
2013-05-02 21:26:00,47.9,43.9,30.26,NNE,12,5.0,11.0,86,0.00,,,0.00,Wunderground v.1.15,2013-05-03 04:26:00,
2013-05-02 21:31:00,48.0,44.0,30.26,NNE,29,4.0,11.0,86,0.00,,,0.00,Wunderground v.1.15,2013-05-03 04:31:00,
2013-05-02 21:36:00,48.1,43.8,30.26,ENE,59,3.0,11.0,85,0.00,,,0.00,Wunderground v.1.15,2013-05-03 04:36:00,
2013-05-02 21:42:00,48.4,44.1,30.26,NE,49,5.0,11.0,85,0.00,,,0.00,Wunderground v.1.15,2013-05-03 04:42:00,
2013-05-02 21:48:00,48.6,43.7,30.26,North,355,6.0,11.0,83,0.00,,,0.00,Wunderground v.1.15,2013-05-03 04:48:00,
2013-05-02 21:53:00,48.4,43.8,30.26,NNE,22,7.0,11.0,84,0.00,,,0.00,Wunderground v.1.15,2013-05-03 04:53:00,
2013-05-02 21:58:00,48.2,43.9,30.27,North,355,8.0,11.0,85,0.00,,,0.00,Wunderground v.1.15,2013-05-03 04:58:00,
2013-05-02 22:04:00,48.2,43.9,30.27,North,9,9.0,12.0,85,0.00,,,0.00,Wunderground v.1.15,2013-05-03 05:04:00,
2013-05-02 22:09:00,48.1,43.8,30.27,NNE,17,9.0,11.0,85,0.00,,,0.00,Wunderground v.1.15,2013-05-03 05:09:00,
2013-05-02 22:15:00,48.1,43.8,30.27,NNE,13,8.0,11.0,85,0.00,,,0.00,Wunderground v.1.15,2013-05-03 05:15:00,
2013-05-02 22:20:00,48.1,43.8,30.27,NNE,27,7.0,11.0,85,0.00,,,0.00,Wunderground v.1.15,2013-05-03 05:20:00,
2013-05-02 22:25:00,47.9,43.9,30.27,NE,46,7.0,11.0,86,0.00,,,0.00,Wunderground v.1.15,2013-05-03 05:25:00,
2013-05-02 22:31:00,47.9,43.9,30.27,North,5,6.0,11.0,86,0.00,,,0.00,Wunderground v.1.15,2013-05-03 05:31:00,
2013-05-02 22:38:00,48.0,44.0,30.27,North,355,6.0,11.0,86,0.00,,,0.00,Wunderground v.1.15,2013-05-03 05:38:00,
2013-05-02 22:43:00,47.9,43.9,30.27,NNE,23,5.0,11.0,86,0.00,,,0.00,Wunderground v.1.15,2013-05-03 05:43:00,
2013-05-02 22:48:00,47.8,43.8,30.27,NE,38,4.0,11.0,86,0.00,,,0.00,Wunderground v.1.15,2013-05-03 05:48:00,
2013-05-02 22:54:00,47.9,43.9,30.26,ENE,73,4.0,11.0,86,0.00,,,0.00,Wunderground v.1.15,2013-05-03 05:54:00,
2013-05-02 22:59:00,47.9,43.9,30.26,NE,39,5.0,11.0,86,0.00,,,0.00,Wunderground v.1.15,2013-05-03 05:59:00,
2013-05-02 23:04:00,47.9,43.9,30.26,NE,49,5.0,11.0,86,0.00,,,0.00,Wunderground v.1.15,2013-05-03 06:04:00,
2013-05-02 23:10:00,47.9,43.9,30.26,NNE,16,5.0,11.0,86,0.00,,,0.00,Wunderground v.1.15,2013-05-03 06:10:00,
2013-05-02 23:16:00,47.8,44.1,30.26,NNE,22,4.0,11.0,87,0.00,,,0.00,Wunderground v.1.15,2013-05-03 06:16:00,
2013-05-02 23:21:00,47.6,43.9,30.26,North,355,6.0,12.0,87,0.00,,,0.00,Wunderground v.1.15,2013-05-03 06:21:00,
2013-05-02 23:26:00,47.3,43.9,30.26,North,11,8.0,12.0,88,0.00,,,0.00,Wunderground v.1.15,2013-05-03 06:26:00,
2013-05-02 23:32:00,47.2,43.8,30.26,NNE,32,8.0,11.0,88,0.00,,,0.00,Wunderground v.1.15,2013-05-03 06:32:00,
2013-05-02 23:38:00,47.2,43.8,30.26,NNE,33,5.0,11.0,88,0.00,,,0.00,Wunderground v.1.15,2013-05-03 06:38:00,
2013-05-02 23:43:00,47.1,43.7,30.26,ENE,57,4.0,11.0,88,0.00,,,0.00,Wunderground v.1.15,2013-05-03 06:43:00,
2013-05-02 23:49:00,46.9,43.8,30.26,NE,42,4.0,11.0,89,0.00,,,0.00,Wunderground v.1.15,2013-05-03 06:49:00,
2013-05-02 23:55:00,46.7,43.6,30.26,NE,35,3.0,11.0,89,0.00,,,0.00,Wunderground v.1.15,2013-05-03 06:55:00,